ImprimablePdf
Brussels, 10/10/2010, BEL - Brussels Marathon & Half Marathon
Liste des rapports > Marathon - BK/CB
Recherche: Page: [1]
68 Entrées
 
Have a look to your pictures by clicking on the Sportograf Icon in the left side!

Les réclamations ne sont plus acceptées, les résultats sont considérés comme définitifs.
Catégorie
PosNrNomAgeIOCTempsTkmMoy.RangNomLocalité
Vos photos grâce à Sportograf1.2VAN GEYTE Gino43BEL2:23:243:24 17.661M40ZWIJNAARDE
Vos photos grâce à Sportograf2.3NEVEN Koen33BEL2:23:263:24 17.651SEHRIEMST
Vos photos grâce à Sportograf3.47FAILLE Gregory38BEL2:25:133:27 17.441M35HERCHIES
Vos photos grâce à Sportograf4.4TERNET Vincent36BEL2:31:353:36 16.702M35HOEILAART
Vos photos grâce à Sportograf5.8VERMEESCH Pieter34BEL2:36:523:44 16.142SEHDE HAAN
Vos photos grâce à Sportograf6.1960VAN HOEBROECK Ali39BEL2:38:163:46 16.003M35LOKEREN
Vos photos grâce à Sportograf7.1668CASIER Gino38BEL2:39:353:47 15.874M35WILRIJK (ANTWERPEN)
Vos photos grâce à Sportograf8.1585ENDELS Patrick35BEL2:41:393:50 15.665M35OVERIJSE
Vos photos grâce à Sportograf9.48MICHIELS Pascal40BEL2:41:453:50 15.652M40WATERMAEL-BOITSFORT
Vos photos grâce à Sportograf10.1632WUYTS Wilfried47BEL2:44:503:55 15.361M45GEEL
Vos photos grâce à Sportograf11.2170VANDORPE Patrick47BEL2:45:003:55 15.352M45WELLE
Vos photos grâce à Sportograf12.49VAN HOECK Yves39BEL2:47:203:58 15.136M35MOERBEKE-WAAS
Vos photos grâce à Sportograf13.1281DELARGE Jean-Yves39BEL2:47:393:59 15.107M35GANSHOREN
Vos photos grâce à Sportograf14.1608LAGAEYSSE Hans43BEL2:47:523:59 15.083M40BEERNEM
Vos photos grâce à Sportograf15.2045HIEMELEERS Marc54BEL2:48:164:00 15.051M50STEVOORT
Vos photos grâce à Sportograf16.294DRIESEN Wim43BEL2:54:454:09 14.494M40BEERSE
Vos photos grâce à Sportograf17.110VAN NIEUWENHOVE Jeroen42BEL2:55:014:09 14.475M40KESSEL-LO
Vos photos grâce à Sportograf18.2267JOOS David41BEL2:55:154:10 14.456M40LEBBEKE
Vos photos grâce à Sportograf19.972VAN WALLENDAEL Willy43BEL2:56:004:11 14.387M40KAPELLEN (ANTW.)
Vos photos grâce à Sportograf20.21HOSTENS Ivan47BEL2:56:454:12 14.323M45HANDZAME
Vos photos grâce à Sportograf21.10TAELMAN Lucien53BEL2:57:534:13 14.232M50WAREGEM
Vos photos grâce à Sportograf22.275GORIS Rudy49BEL3:03:244:21 13.814M45ARENDONK
Vos photos grâce à Sportograf23.1551FDESEYN Carline44BEL3:03:324:21 13.801F40DEERLIJK
Vos photos grâce à Sportograf24.1572PUYSTJENS Gino48BEL3:04:524:23 13.705M45LOMBARDSIJDE
Vos photos grâce à Sportograf25.252FGUILLEMYN Marijke46BEL3:06:544:26 13.551F45POELKAPELLE
Vos photos grâce à Sportograf26.22MOYSON Renaat49BEL3:09:564:31 13.336M45MERCHTEM
Vos photos grâce à Sportograf27.2322DE CNIJF Roger54BEL3:10:434:32 13.283M50KORTENBERG
Vos photos grâce à Sportograf28.2324BOS Johan53BEL3:14:374:37 13.014M50KORTENBERG
Vos photos grâce à Sportograf29.2354KIZA Shaila25UGA3:17:464:42 12.803SEHBRUGGE
Vos photos grâce à Sportograf30.1297VAN LIERDE Roger58BEL3:18:354:43 12.751M55DENDERLEEUW
Vos photos grâce à Sportograf31.263DEJARDIN Philippe41BEL3:18:394:43 12.748M40BRAINE-L'ALLEUD
Vos photos grâce à Sportograf32.1811MARSIN Gaetan35BEL3:20:334:46 12.628M35UCCLE
Vos photos grâce à Sportograf33.1509ALEXANDRE Yves40BEL3:21:584:48 12.549M40BRAINE-L'ALLEUD
Vos photos grâce à Sportograf34.2323MEREMANS Yves53BEL3:24:134:51 12.405M50KORTENBERG
Vos photos grâce à Sportograf35.340FSALENS Annelore31BEL3:24:134:51 12.401SEFLEEFDAAL
Vos photos grâce à Sportograf36.130FBALDUCK Nadine49BEL3:24:434:52 12.372F45ZAVENTEM
Vos photos grâce à Sportograf37.1813POULUSSEN Erwin45BEL3:25:474:53 12.307M45ERPS-KWERPS
Vos photos grâce à Sportograf38.2169WINNEN Paul55BEL3:27:354:56 12.206M50VELTEM-BEISEM
Vos photos grâce à Sportograf39.2521VAN DEN BERGH Benjamin25BEL3:27:544:56 12.184SEHKONTICH
Vos photos grâce à Sportograf40.1997PAQUAY David36BEL3:28:084:56 12.169M35LAMINE
Vos photos grâce à Sportograf41.2057MARTENS Roel33BEL3:28:264:57 12.155SEHWESTERLO
Vos photos grâce à Sportograf42.1693EGO Laurent22BEL3:28:374:57 12.146SEHWATERLOO
Vos photos grâce à Sportograf43.127DOCKX Jeroen31BEL3:34:475:06 11.797SEHSTERREBEEK
Vos photos grâce à Sportograf44.1651PARDAENS Leo66BEL3:36:175:08 11.711M65PELLENBERG
Vos photos grâce à Sportograf45.359FDEWILDER Nicole49BEL3:38:195:11 11.603F45TERVUREN
Vos photos grâce à Sportograf46.1899FBAUTERS Monique63BEL3:38:475:12 11.571F60ZINGEM
Vos photos grâce à Sportograf47.1937FHENDRIKX Frieda57BEL3:38:485:12 11.571F55HAMONT-ACHEL
Vos photos grâce à Sportograf48.1631FVERLINDEN Nadia41BEL3:39:005:12 11.562F40BRUXELLES 17
Vos photos grâce à Sportograf49.1000ZEGERS Rolland54BEL3:39:035:12 11.567M50EVERE
Vos photos grâce à Sportograf50.27KLOEK Patrick46BEL3:41:365:16 11.438M45ANTWERPEN
Vos photos grâce à Sportograf51.2165FVANHAUTE Suzy47BEL3:42:035:16 11.404F45NOSSEGEM
Vos photos grâce à Sportograf52.2164VANDERSTAPPEN Gaetan49BEL3:42:035:16 11.409M45MEERBEEK
Vos photos grâce à Sportograf53.2325FVANHALLE Anja38BEL3:42:135:16 11.391F35EVERBERG
Vos photos grâce à Sportograf54.2163FDE FEYTER Caroline51BEL3:42:175:17 11.391F50ERPS-KWERPS
Vos photos grâce à Sportograf55.2527CLAEREBOUDT Jan48BEL3:45:125:21 11.2410M45LINT
Vos photos grâce à Sportograf56.1935FDIDDEN Elianthe54BEL3:49:225:27 11.042F50HAMONT-ACHEL
Vos photos grâce à Sportograf57.2370VIERENDEELS Tijl51BEL3:51:335:30 10.938M50HAALTERT
Vos photos grâce à Sportograf58.256FDE MOOR Catherine51BEL3:53:555:33 10.823F50ST.NIKLAAS
Vos photos grâce à Sportograf59.1999HULSMANS Pierre65BEL3:55:055:35 10.772M65ZONHOVEN
Vos photos grâce à Sportograf60.1225RABAEY Maarten37BEL4:01:095:43 10.5010M35TERVUREN
Vos photos grâce à Sportograf61.1946FPALMANS Mia59BEL4:03:395:47 10.392F55NEERPELT
Vos photos grâce à Sportograf62.117FVEKEMANS Renilde55BEL4:09:125:55 10.163F55HASSELT
Vos photos grâce à Sportograf63.2168FVAN DE MEULEBROEKE Hilde44BEL4:11:235:58 10.073F40KORTENBERG
Vos photos grâce à Sportograf64.2167HERROELEN Johan47BEL4:12:446:00 10.0211M45EVERBERG
Vos photos grâce à Sportograf65.2166FKEMPENEERS Annik43BEL4:18:366:08 9.794F40EVERBERG
Vos photos grâce à Sportograf66.775ALAIME Dimitri37BEL4:25:306:18 9.5411M35CHARLEROI
Vos photos grâce à SportografDNF179CHAUHAN Harbans50BELM50HEVERLEE
Vos photos grâce à SportografDNF299DEVEIRMAN Didier30BELSEHBEERSEL
DNF: abandon; DSQ: disqualifié; Vitesse en km/h
ChronoRace - Electronic Timing - www.chronorace.be